sensor_id;sensor_type;location;lat;lon;timestamp;P1;durP1;ratioP1;P2;durP2;ratioP2
17175;SDS011;8703;48.996;9.594;2022-07-22T00:01:57;8.73;;;6.35;;
17175;SDS011;8703;48.996;9.594;2022-07-22T00:04:25;8.80;;;6.18;;
17175;SDS011;8703;48.996;9.594;2022-07-22T00:06:52;7.32;;;6.22;;
17175;SDS011;8703;48.996;9.594;2022-07-22T00:09:19;8.75;;;6.60;;
17175;SDS011;8703;48.996;9.594;2022-07-22T00:11:47;6.95;;;6.35;;
17175;SDS011;8703;48.996;9.594;2022-07-22T00:14:14;8.73;;;6.18;;
17175;SDS011;8703;48.996;9.594;2022-07-22T00:16:41;7.25;;;6.43;;
17175;SDS011;8703;48.996;9.594;2022-07-22T00:19:10;7.63;;;6.43;;
17175;SDS011;8703;48.996;9.594;2022-07-22T00:21:38;8.27;;;6.70;;
17175;SDS011;8703;48.996;9.594;2022-07-22T00:24:05;7.10;;;6.40;;
17175;SDS011;8703;48.996;9.594;2022-07-22T00:26:33;11.30;;;6.60;;
17175;SDS011;8703;48.996;9.594;2022-07-22T00:29:00;7.88;;;6.45;;
17175;SDS011;8703;48.996;9.594;2022-07-22T00:31:27;7.13;;;6.32;;
17175;SDS011;8703;48.996;9.594;2022-07-22T00:33:55;9.50;;;6.30;;
17175;SDS011;8703;48.996;9.594;2022-07-22T00:36:25;10.35;;;6.53;;
17175;SDS011;8703;48.996;9.594;2022-07-22T00:38:53;7.97;;;5.95;;
17175;SDS011;8703;48.996;9.594;2022-07-22T00:41:20;7.75;;;6.68;;
17175;SDS011;8703;48.996;9.594;2022-07-22T00:43:49;9.00;;;6.80;;
17175;SDS011;8703;48.996;9.594;2022-07-22T00:46:17;9.85;;;7.50;;
17175;SDS011;8703;48.996;9.594;2022-07-22T00:48:45;11.80;;;6.78;;
17175;SDS011;8703;48.996;9.594;2022-07-22T00:51:12;10.23;;;6.75;;
17175;SDS011;8703;48.996;9.594;2022-07-22T00:53:41;8.43;;;6.68;;
17175;SDS011;8703;48.996;9.594;2022-07-22T00:56:09;7.75;;;6.47;;
17175;SDS011;8703;48.996;9.594;2022-07-22T00:58:36;15.13;;;6.80;;
17175;SDS011;8703;48.996;9.594;2022-07-22T01:01:03;8.00;;;6.63;;
17175;SDS011;8703;48.996;9.594;2022-07-22T01:03:31;8.27;;;6.95;;
17175;SDS011;8703;48.996;9.594;2022-07-22T01:05:58;11.90;;;9.30;;
17175;SDS011;8703;48.996;9.594;2022-07-22T01:08:26;9.70;;;6.88;;
17175;SDS011;8703;48.996;9.594;2022-07-22T01:10:54;9.43;;;6.45;;
17175;SDS011;8703;48.996;9.594;2022-07-22T01:13:33;9.27;;;8.25;;
17175;SDS011;8703;48.996;9.594;2022-07-22T01:16:00;9.07;;;6.55;;
17175;SDS011;8703;48.996;9.594;2022-07-22T01:18:28;7.35;;;6.65;;
17175;SDS011;8703;48.996;9.594;2022-07-22T01:20:56;7.13;;;6.03;;
17175;SDS011;8703;48.996;9.594;2022-07-22T01:23:24;9.10;;;6.78;;
17175;SDS011;8703;48.996;9.594;2022-07-22T01:25:51;8.68;;;6.57;;
17175;SDS011;8703;48.996;9.594;2022-07-22T01:28:19;7.97;;;6.90;;
17175;SDS011;8703;48.996;9.594;2022-07-22T01:30:46;8.75;;;6.93;;
17175;SDS011;8703;48.996;9.594;2022-07-22T01:33:14;10.88;;;7.68;;
17175;SDS011;8703;48.996;9.594;2022-07-22T01:35:42;8.68;;;7.43;;
17175;SDS011;8703;48.996;9.594;2022-07-22T01:38:11;9.25;;;6.80;;
17175;SDS011;8703;48.996;9.594;2022-07-22T01:40:38;10.18;;;7.45;;
17175;SDS011;8703;48.996;9.594;2022-07-22T01:43:06;7.85;;;6.95;;
17175;SDS011;8703;48.996;9.594;2022-07-22T01:45:33;8.38;;;6.88;;
17175;SDS011;8703;48.996;9.594;2022-07-22T01:48:01;8.05;;;7.00;;
17175;SDS011;8703;48.996;9.594;2022-07-22T01:50:28;8.05;;;6.82;;
17175;SDS011;8703;48.996;9.594;2022-07-22T01:52:56;8.93;;;6.80;;
17175;SDS011;8703;48.996;9.594;2022-07-22T01:55:25;11.18;;;6.68;;
17175;SDS011;8703;48.996;9.594;2022-07-22T01:57:52;9.25;;;6.57;;
17175;SDS011;8703;48.996;9.594;2022-07-22T02:00:19;8.98;;;6.75;;
17175;SDS011;8703;48.996;9.594;2022-07-22T02:02:47;8.43;;;6.90;;
17175;SDS011;8703;48.996;9.594;2022-07-22T02:05:14;8.80;;;7.45;;
17175;SDS011;8703;48.996;9.594;2022-07-22T02:07:42;10.43;;;6.82;;
17175;SDS011;8703;48.996;9.594;2022-07-22T02:10:09;7.60;;;6.88;;
17175;SDS011;8703;48.996;9.594;2022-07-22T02:12:38;7.90;;;6.88;;
17175;SDS011;8703;48.996;9.594;2022-07-22T02:15:06;11.07;;;7.13;;
17175;SDS011;8703;48.996;9.594;2022-07-22T02:17:34;8.70;;;7.10;;
17175;SDS011;8703;48.996;9.594;2022-07-22T02:20:02;9.18;;;7.07;;
17175;SDS011;8703;48.996;9.594;2022-07-22T02:22:30;8.88;;;6.40;;
17175;SDS011;8703;48.996;9.594;2022-07-22T02:24:58;9.48;;;7.10;;
17175;SDS011;8703;48.996;9.594;2022-07-22T02:27:25;8.25;;;7.38;;
17175;SDS011;8703;48.996;9.594;2022-07-22T02:29:54;8.60;;;6.95;;
17175;SDS011;8703;48.996;9.594;2022-07-22T02:32:21;11.13;;;6.45;;
17175;SDS011;8703;48.996;9.594;2022-07-22T02:34:48;9.85;;;6.53;;
17175;SDS011;8703;48.996;9.594;2022-07-22T02:37:16;8.60;;;6.82;;
17175;SDS011;8703;48.996;9.594;2022-07-22T02:39:43;10.07;;;7.20;;
17175;SDS011;8703;48.996;9.594;2022-07-22T02:42:11;7.60;;;6.80;;
17175;SDS011;8703;48.996;9.594;2022-07-22T02:44:38;7.85;;;7.05;;
17175;SDS011;8703;48.996;9.594;2022-07-22T02:47:07;11.98;;;7.03;;
17175;SDS011;8703;48.996;9.594;2022-07-22T02:49:34;8.00;;;7.10;;
17175;SDS011;8703;48.996;9.594;2022-07-22T02:52:01;7.40;;;6.70;;
17175;SDS011;8703;48.996;9.594;2022-07-22T02:54:29;10.80;;;7.40;;
17175;SDS011;8703;48.996;9.594;2022-07-22T02:56:56;10.40;;;7.20;;
17175;SDS011;8703;48.996;9.594;2022-07-22T02:59:23;9.68;;;7.55;;
17175;SDS011;8703;48.996;9.594;2022-07-22T03:01:51;7.97;;;7.05;;
17175;SDS011;8703;48.996;9.594;2022-07-22T03:04:19;11.47;;;7.43;;
17175;SDS011;8703;48.996;9.594;2022-07-22T03:06:47;10.05;;;7.07;;
17175;SDS011;8703;48.996;9.594;2022-07-22T03:09:14;8.43;;;6.70;;
17175;SDS011;8703;48.996;9.594;2022-07-22T03:11:41;8.43;;;6.93;;
17175;SDS011;8703;48.996;9.594;2022-07-22T03:14:09;10.93;;;7.18;;
17175;SDS011;8703;48.996;9.594;2022-07-22T03:16:36;8.00;;;7.20;;
17175;SDS011;8703;48.996;9.594;2022-07-22T03:19:03;9.88;;;7.22;;
17175;SDS011;8703;48.996;9.594;2022-07-22T03:21:32;9.05;;;7.40;;
17175;SDS011;8703;48.996;9.594;2022-07-22T03:24:00;8.82;;;7.20;;
17175;SDS011;8703;48.996;9.594;2022-07-22T03:26:27;8.52;;;6.30;;
17175;SDS011;8703;48.996;9.594;2022-07-22T03:28:54;7.80;;;6.30;;
17175;SDS011;8703;48.996;9.594;2022-07-22T03:31:22;8.25;;;7.00;;
17175;SDS011;8703;48.996;9.594;2022-07-22T03:33:49;9.32;;;7.90;;
17175;SDS011;8703;48.996;9.594;2022-07-22T03:36:16;8.35;;;7.45;;
17175;SDS011;8703;48.996;9.594;2022-07-22T03:38:45;9.85;;;7.80;;
17175;SDS011;8703;48.996;9.594;2022-07-22T03:41:12;11.57;;;7.50;;
17175;SDS011;8703;48.996;9.594;2022-07-22T03:43:40;8.00;;;7.20;;
17175;SDS011;8703;48.996;9.594;2022-07-22T03:46:07;10.00;;;7.47;;
17175;SDS011;8703;48.996;9.594;2022-07-22T03:48:34;8.73;;;7.63;;
17175;SDS011;8703;48.996;9.594;2022-07-22T03:51:02;8.30;;;7.43;;
17175;SDS011;8703;48.996;9.594;2022-07-22T03:53:30;9.48;;;6.93;;
17175;SDS011;8703;48.996;9.594;2022-07-22T03:55:59;7.37;;;6.67;;
17175;SDS011;8703;48.996;9.594;2022-07-22T03:58:27;11.50;;;7.57;;
17175;SDS011;8703;48.996;9.594;2022-07-22T04:00:54;9.10;;;7.73;;
17175;SDS011;8703;48.996;9.594;2022-07-22T04:03:22;8.17;;;7.03;;
17175;SDS011;8703;48.996;9.594;2022-07-22T04:05:49;11.60;;;7.17;;
17175;SDS011;8703;48.996;9.594;2022-07-22T04:08:16;9.70;;;7.60;;
17175;SDS011;8703;48.996;9.594;2022-07-22T04:10:44;8.43;;;6.80;;
17175;SDS011;8703;48.996;9.594;2022-07-22T04:13:13;9.50;;;7.40;;
17175;SDS011;8703;48.996;9.594;2022-07-22T04:15:40;11.75;;;7.25;;
17175;SDS011;8703;48.996;9.594;2022-07-22T04:18:07;9.75;;;7.78;;
17175;SDS011;8703;48.996;9.594;2022-07-22T04:20:35;8.33;;;7.10;;
17175;SDS011;8703;48.996;9.594;2022-07-22T04:23:02;10.57;;;7.53;;
17175;SDS011;8703;48.996;9.594;2022-07-22T04:25:29;9.03;;;7.07;;
17175;SDS011;8703;48.996;9.594;2022-07-22T04:27:57;8.83;;;7.13;;
17175;SDS011;8703;48.996;9.594;2022-07-22T04:30:25;12.03;;;8.30;;
17175;SDS011;8703;48.996;9.594;2022-07-22T04:32:53;9.27;;;7.57;;
17175;SDS011;8703;48.996;9.594;2022-07-22T04:35:20;9.83;;;7.37;;
17175;SDS011;8703;48.996;9.594;2022-07-22T04:37:47;9.50;;;7.10;;
17175;SDS011;8703;48.996;9.594;2022-07-22T04:40:15;8.63;;;7.60;;
17175;SDS011;8703;48.996;9.594;2022-07-22T04:42:42;8.43;;;7.53;;
17175;SDS011;8703;48.996;9.594;2022-07-22T04:45:10;10.83;;;7.63;;
17175;SDS011;8703;48.996;9.594;2022-07-22T04:47:39;9.77;;;7.43;;
17175;SDS011;8703;48.996;9.594;2022-07-22T04:50:07;8.85;;;7.95;;
17175;SDS011;8703;48.996;9.594;2022-07-22T04:52:35;8.40;;;7.57;;
17175;SDS011;8703;48.996;9.594;2022-07-22T04:55:02;9.87;;;7.70;;
17175;SDS011;8703;48.996;9.594;2022-07-22T04:57:30;10.87;;;7.83;;
17175;SDS011;8703;48.996;9.594;2022-07-22T04:59:57;10.27;;;7.70;;
17175;SDS011;8703;48.996;9.594;2022-07-22T05:02:25;9.53;;;8.03;;
17175;SDS011;8703;48.996;9.594;2022-07-22T05:04:53;8.80;;;7.77;;
17175;SDS011;8703;48.996;9.594;2022-07-22T05:07:21;10.13;;;8.45;;
17175;SDS011;8703;48.996;9.594;2022-07-22T05:09:48;9.27;;;8.07;;
17175;SDS011;8703;48.996;9.594;2022-07-22T05:12:15;10.33;;;8.90;;
17175;SDS011;8703;48.996;9.594;2022-07-22T05:14:43;12.20;;;8.87;;
17175;SDS011;8703;48.996;9.594;2022-07-22T05:17:10;10.38;;;9.30;;
17175;SDS011;8703;48.996;9.594;2022-07-22T05:19:38;11.27;;;9.02;;
17175;SDS011;8703;48.996;9.594;2022-07-22T05:22:07;12.37;;;8.63;;
17175;SDS011;8703;48.996;9.594;2022-07-22T05:24:34;9.90;;;9.00;;
17175;SDS011;8703;48.996;9.594;2022-07-22T05:27:02;11.13;;;8.75;;
17175;SDS011;8703;48.996;9.594;2022-07-22T05:29:29;10.32;;;8.90;;
17175;SDS011;8703;48.996;9.594;2022-07-22T05:31:57;12.45;;;8.68;;
17175;SDS011;8703;48.996;9.594;2022-07-22T05:34:24;9.45;;;8.55;;
17175;SDS011;8703;48.996;9.594;2022-07-22T05:36:51;9.95;;;8.95;;
17175;SDS011;8703;48.996;9.594;2022-07-22T05:39:20;11.27;;;9.30;;
17175;SDS011;8703;48.996;9.594;2022-07-22T05:41:47;12.90;;;9.18;;
17175;SDS011;8703;48.996;9.594;2022-07-22T05:44:15;16.10;;;8.67;;
17175;SDS011;8703;48.996;9.594;2022-07-22T05:46:42;11.90;;;8.68;;
17175;SDS011;8703;48.996;9.594;2022-07-22T05:49:09;10.68;;;9.07;;
17175;SDS011;8703;48.996;9.594;2022-07-22T05:51:37;9.38;;;8.00;;
17175;SDS011;8703;48.996;9.594;2022-07-22T05:54:05;9.55;;;8.43;;
17175;SDS011;8703;48.996;9.594;2022-07-22T05:56:33;10.25;;;9.15;;
17175;SDS011;8703;48.996;9.594;2022-07-22T05:59:01;10.27;;;9.15;;
17175;SDS011;8703;48.996;9.594;2022-07-22T06:01:28;38.08;;;9.10;;
17175;SDS011;8703;48.996;9.594;2022-07-22T06:03:56;12.65;;;8.70;;
17175;SDS011;8703;48.996;9.594;2022-07-22T06:06:23;12.23;;;8.88;;
17175;SDS011;8703;48.996;9.594;2022-07-22T06:08:51;11.07;;;8.98;;
17175;SDS011;8703;48.996;9.594;2022-07-22T06:11:18;12.35;;;9.00;;
17175;SDS011;8703;48.996;9.594;2022-07-22T06:13:47;11.77;;;10.50;;
17175;SDS011;8703;48.996;9.594;2022-07-22T06:16:14;11.15;;;10.05;;
17175;SDS011;8703;48.996;9.594;2022-07-22T06:18:41;13.43;;;10.35;;
17175;SDS011;8703;48.996;9.594;2022-07-22T06:21:09;15.40;;;10.07;;
17175;SDS011;8703;48.996;9.594;2022-07-22T06:23:36;11.38;;;9.98;;
17175;SDS011;8703;48.996;9.594;2022-07-22T06:26:04;12.73;;;9.55;;
17175;SDS011;8703;48.996;9.594;2022-07-22T06:28:31;11.93;;;10.13;;
17175;SDS011;8703;48.996;9.594;2022-07-22T06:31:00;12.82;;;9.48;;
17175;SDS011;8703;48.996;9.594;2022-07-22T06:33:27;11.02;;;9.10;;
17175;SDS011;8703;48.996;9.594;2022-07-22T06:35:58;10.73;;;9.73;;
17175;SDS011;8703;48.996;9.594;2022-07-22T06:38:25;11.00;;;9.85;;
17175;SDS011;8703;48.996;9.594;2022-07-22T06:40:52;10.57;;;9.20;;
17175;SDS011;8703;48.996;9.594;2022-07-22T06:43:20;10.73;;;9.63;;
17175;SDS011;8703;48.996;9.594;2022-07-22T06:45:47;12.15;;;8.75;;
17175;SDS011;8703;48.996;9.594;2022-07-22T06:48:17;12.00;;;8.70;;
17175;SDS011;8703;48.996;9.594;2022-07-22T06:50:44;12.05;;;9.38;;
17175;SDS011;8703;48.996;9.594;2022-07-22T06:53:11;9.68;;;8.65;;
17175;SDS011;8703;48.996;9.594;2022-07-22T06:55:38;10.13;;;7.88;;
17175;SDS011;8703;48.996;9.594;2022-07-22T06:58:06;11.55;;;8.25;;
17175;SDS011;8703;48.996;9.594;2022-07-22T07:00:33;10.23;;;7.88;;
17175;SDS011;8703;48.996;9.594;2022-07-22T07:03:01;11.23;;;8.18;;
17175;SDS011;8703;48.996;9.594;2022-07-22T07:05:29;10.35;;;8.40;;
17175;SDS011;8703;48.996;9.594;2022-07-22T07:07:57;10.75;;;9.07;;
17175;SDS011;8703;48.996;9.594;2022-07-22T07:10:24;9.50;;;7.93;;
17175;SDS011;8703;48.996;9.594;2022-07-22T07:12:54;13.00;;;8.98;;
17175;SDS011;8703;48.996;9.594;2022-07-22T07:15:22;9.38;;;8.43;;
17175;SDS011;8703;48.996;9.594;2022-07-22T07:17:50;10.98;;;9.50;;
17175;SDS011;8703;48.996;9.594;2022-07-22T07:20:19;11.25;;;8.95;;
17175;SDS011;8703;48.996;9.594;2022-07-22T07:22:48;11.50;;;9.35;;
17175;SDS011;8703;48.996;9.594;2022-07-22T07:25:15;10.98;;;9.20;;
17175;SDS011;8703;48.996;9.594;2022-07-22T07:27:43;10.68;;;8.48;;
17175;SDS011;8703;48.996;9.594;2022-07-22T07:30:10;13.25;;;8.43;;
17175;SDS011;8703;48.996;9.594;2022-07-22T07:32:38;11.13;;;8.88;;
17175;SDS011;8703;48.996;9.594;2022-07-22T07:35:06;8.70;;;7.22;;
17175;SDS011;8703;48.996;9.594;2022-07-22T07:37:34;18.40;;;8.77;;
17175;SDS011;8703;48.996;9.594;2022-07-22T07:40:03;9.48;;;8.57;;
17175;SDS011;8703;48.996;9.594;2022-07-22T07:42:31;8.90;;;7.50;;
17175;SDS011;8703;48.996;9.594;2022-07-22T07:44:58;11.13;;;8.82;;
17175;SDS011;8703;48.996;9.594;2022-07-22T07:47:26;9.95;;;7.82;;
17175;SDS011;8703;48.996;9.594;2022-07-22T07:49:53;8.40;;;7.53;;
17175;SDS011;8703;48.996;9.594;2022-07-22T07:52:22;9.35;;;8.40;;
17175;SDS011;8703;48.996;9.594;2022-07-22T07:54:49;9.95;;;8.93;;
17175;SDS011;8703;48.996;9.594;2022-07-22T07:57:19;7.75;;;7.05;;
17175;SDS011;8703;48.996;9.594;2022-07-22T07:59:46;9.73;;;8.80;;
17175;SDS011;8703;48.996;9.594;2022-07-22T08:02:14;12.45;;;10.07;;
17175;SDS011;8703;48.996;9.594;2022-07-22T08:04:41;9.73;;;8.70;;
17175;SDS011;8703;48.996;9.594;2022-07-22T08:07:08;10.48;;;8.95;;
17175;SDS011;8703;48.996;9.594;2022-07-22T08:09:36;9.38;;;8.50;;
17175;SDS011;8703;48.996;9.594;2022-07-22T08:12:04;9.00;;;8.15;;
17175;SDS011;8703;48.996;9.594;2022-07-22T08:14:33;9.15;;;8.18;;
17175;SDS011;8703;48.996;9.594;2022-07-22T08:17:01;8.95;;;8.02;;
17175;SDS011;8703;48.996;9.594;2022-07-22T08:19:28;8.93;;;8.02;;
17175;SDS011;8703;48.996;9.594;2022-07-22T08:21:56;10.10;;;7.43;;
17175;SDS011;8703;48.996;9.594;2022-07-22T08:24:23;9.93;;;7.95;;
17175;SDS011;8703;48.996;9.594;2022-07-22T08:26:51;8.95;;;7.68;;
17175;SDS011;8703;48.996;9.594;2022-07-22T08:29:18;8.43;;;7.63;;
17175;SDS011;8703;48.996;9.594;2022-07-22T08:31:47;9.82;;;8.40;;
17175;SDS011;8703;48.996;9.594;2022-07-22T08:34:14;7.70;;;6.88;;
17175;SDS011;8703;48.996;9.594;2022-07-22T08:36:42;11.77;;;7.90;;
17175;SDS011;8703;48.996;9.594;2022-07-22T08:39:09;8.98;;;7.80;;
17175;SDS011;8703;48.996;9.594;2022-07-22T08:41:37;7.70;;;6.97;;
17175;SDS011;8703;48.996;9.594;2022-07-22T08:44:05;8.18;;;7.38;;
17175;SDS011;8703;48.996;9.594;2022-07-22T08:46:34;7.85;;;7.05;;
17175;SDS011;8703;48.996;9.594;2022-07-22T08:49:03;8.45;;;6.85;;
17175;SDS011;8703;48.996;9.594;2022-07-22T08:51:31;7.85;;;6.97;;
17175;SDS011;8703;48.996;9.594;2022-07-22T08:53:59;7.15;;;6.50;;
17175;SDS011;8703;48.996;9.594;2022-07-22T08:56:26;7.60;;;6.90;;
17175;SDS011;8703;48.996;9.594;2022-07-22T08:58:53;9.05;;;7.22;;
17175;SDS011;8703;48.996;9.594;2022-07-22T09:01:21;8.43;;;6.20;;
17175;SDS011;8703;48.996;9.594;2022-07-22T09:03:49;7.13;;;6.47;;
17175;SDS011;8703;48.996;9.594;2022-07-22T09:06:22;8.38;;;6.30;;
17175;SDS011;8703;48.996;9.594;2022-07-22T09:08:53;7.85;;;7.05;;
17175;SDS011;8703;48.996;9.594;2022-07-22T09:11:22;7.75;;;6.95;;
17175;SDS011;8703;48.996;9.594;2022-07-22T09:13:51;7.95;;;7.05;;
17175;SDS011;8703;48.996;9.594;2022-07-22T09:19:04;9.85;;;6.78;;
17175;SDS011;8703;48.996;9.594;2022-07-22T09:21:33;8.75;;;6.63;;
17175;SDS011;8703;48.996;9.594;2022-07-22T09:24:02;7.38;;;6.57;;
17175;SDS011;8703;48.996;9.594;2022-07-22T09:26:31;7.40;;;6.68;;
17175;SDS011;8703;48.996;9.594;2022-07-22T09:28:59;9.35;;;7.35;;
17175;SDS011;8703;48.996;9.594;2022-07-22T09:31:29;7.35;;;6.60;;
17175;SDS011;8703;48.996;9.594;2022-07-22T09:33:57;7.10;;;6.40;;
17175;SDS011;8703;48.996;9.594;2022-07-22T09:36:25;8.60;;;6.05;;
17175;SDS011;8703;48.996;9.594;2022-07-22T09:38:54;7.47;;;6.13;;
17175;SDS011;8703;48.996;9.594;2022-07-22T09:41:21;6.65;;;5.95;;
17175;SDS011;8703;48.996;9.594;2022-07-22T09:43:48;7.47;;;6.20;;
17175;SDS011;8703;48.996;9.594;2022-07-22T09:46:16;7.00;;;6.35;;
17175;SDS011;8703;48.996;9.594;2022-07-22T09:48:43;8.25;;;6.28;;
17175;SDS011;8703;48.996;9.594;2022-07-22T09:51:11;8.35;;;6.90;;
17175;SDS011;8703;48.996;9.594;2022-07-22T09:53:38;7.10;;;6.18;;
17175;SDS011;8703;48.996;9.594;2022-07-22T09:56:07;6.03;;;5.53;;
17175;SDS011;8703;48.996;9.594;2022-07-22T09:58:34;7.07;;;6.38;;
17175;SDS011;8703;48.996;9.594;2022-07-22T10:01:03;6.60;;;6.00;;
17175;SDS011;8703;48.996;9.594;2022-07-22T10:03:32;6.43;;;5.75;;
17175;SDS011;8703;48.996;9.594;2022-07-22T10:06:02;6.60;;;5.60;;
17175;SDS011;8703;48.996;9.594;2022-07-22T10:08:31;6.95;;;5.72;;
17175;SDS011;8703;48.996;9.594;2022-07-22T10:11:00;8.80;;;5.65;;
17175;SDS011;8703;48.996;9.594;2022-07-22T10:13:30;7.57;;;6.22;;
17175;SDS011;8703;48.996;9.594;2022-07-22T10:15:59;6.95;;;6.25;;
17175;SDS011;8703;48.996;9.594;2022-07-22T10:18:26;6.78;;;5.40;;
17175;SDS011;8703;48.996;9.594;2022-07-22T10:21:01;6.30;;;5.70;;
17175;SDS011;8703;48.996;9.594;2022-07-22T10:23:29;6.18;;;5.60;;
17175;SDS011;8703;48.996;9.594;2022-07-22T10:25:57;6.00;;;5.50;;
17175;SDS011;8703;48.996;9.594;2022-07-22T10:28:26;6.18;;;5.53;;
17175;SDS011;8703;48.996;9.594;2022-07-22T10:31:07;5.90;;;5.30;;
17175;SDS011;8703;48.996;9.594;2022-07-22T10:33:44;6.00;;;5.38;;
17175;SDS011;8703;48.996;9.594;2022-07-22T10:36:14;6.35;;;5.32;;
17175;SDS011;8703;48.996;9.594;2022-07-22T10:39:00;6.25;;;5.70;;
17175;SDS011;8703;48.996;9.594;2022-07-22T10:41:32;6.45;;;5.47;;
17175;SDS011;8703;48.996;9.594;2022-07-22T10:44:01;6.65;;;5.93;;
17175;SDS011;8703;48.996;9.594;2022-07-22T10:46:49;7.72;;;5.55;;
17175;SDS011;8703;48.996;9.594;2022-07-22T10:49:18;6.13;;;5.53;;
17175;SDS011;8703;48.996;9.594;2022-07-22T10:52:08;6.28;;;5.68;;
17175;SDS011;8703;48.996;9.594;2022-07-22T10:57:37;6.55;;;5.93;;
17175;SDS011;8703;48.996;9.594;2022-07-22T11:00:05;6.13;;;5.32;;
17175;SDS011;8703;48.996;9.594;2022-07-22T11:02:35;6.28;;;5.20;;
17175;SDS011;8703;48.996;9.594;2022-07-22T11:05:04;7.57;;;5.35;;
17175;SDS011;8703;48.996;9.594;2022-07-22T11:07:33;6.30;;;5.72;;
17175;SDS011;8703;48.996;9.594;2022-07-22T11:10:09;6.10;;;5.50;;
17175;SDS011;8703;48.996;9.594;2022-07-22T11:12:37;5.85;;;5.25;;
17175;SDS011;8703;48.996;9.594;2022-07-22T11:15:05;5.80;;;5.20;;
17175;SDS011;8703;48.996;9.594;2022-07-22T11:17:35;5.70;;;5.10;;
17175;SDS011;8703;48.996;9.594;2022-07-22T11:20:04;5.20;;;4.68;;
17175;SDS011;8703;48.996;9.594;2022-07-22T11:22:33;6.38;;;5.25;;
17175;SDS011;8703;48.996;9.594;2022-07-22T11:25:02;6.05;;;5.35;;
17175;SDS011;8703;48.996;9.594;2022-07-22T11:27:31;6.35;;;5.63;;
17175;SDS011;8703;48.996;9.594;2022-07-22T11:29:58;6.10;;;5.50;;
17175;SDS011;8703;48.996;9.594;2022-07-22T11:32:29;6.00;;;5.30;;
17175;SDS011;8703;48.996;9.594;2022-07-22T11:34:58;6.53;;;5.38;;
17175;SDS011;8703;48.996;9.594;2022-07-22T11:37:27;5.93;;;5.32;;
17175;SDS011;8703;48.996;9.594;2022-07-22T11:39:58;5.60;;;5.10;;
17175;SDS011;8703;48.996;9.594;2022-07-22T11:42:26;6.32;;;4.82;;
17175;SDS011;8703;48.996;9.594;2022-07-22T11:44:54;6.00;;;5.35;;
17175;SDS011;8703;48.996;9.594;2022-07-22T11:47:22;4.70;;;4.30;;
17175;SDS011;8703;48.996;9.594;2022-07-22T11:49:50;7.82;;;5.28;;
17175;SDS011;8703;48.996;9.594;2022-07-22T11:52:19;5.15;;;4.72;;
17175;SDS011;8703;48.996;9.594;2022-07-22T11:54:46;5.20;;;4.80;;
17175;SDS011;8703;48.996;9.594;2022-07-22T11:57:15;6.03;;;4.65;;
17175;SDS011;8703;48.996;9.594;2022-07-22T11:59:42;5.45;;;4.95;;
17175;SDS011;8703;48.996;9.594;2022-07-22T12:02:10;6.28;;;5.10;;
17175;SDS011;8703;48.996;9.594;2022-07-22T12:04:38;5.18;;;4.68;;
17175;SDS011;8703;48.996;9.594;2022-07-22T12:07:06;5.18;;;4.13;;
17175;SDS011;8703;48.996;9.594;2022-07-22T12:09:35;5.13;;;4.63;;
17175;SDS011;8703;48.996;9.594;2022-07-22T12:12:03;6.18;;;4.60;;
17175;SDS011;8703;48.996;9.594;2022-07-22T12:14:32;5.10;;;4.60;;
17175;SDS011;8703;48.996;9.594;2022-07-22T12:17:00;5.25;;;4.53;;
17175;SDS011;8703;48.996;9.594;2022-07-22T12:19:29;5.20;;;4.70;;
17175;SDS011;8703;48.996;9.594;2022-07-22T12:21:58;5.75;;;4.57;;
17175;SDS011;8703;48.996;9.594;2022-07-22T12:24:28;6.65;;;5.00;;
17175;SDS011;8703;48.996;9.594;2022-07-22T12:26:58;4.97;;;4.57;;
17175;SDS011;8703;48.996;9.594;2022-07-22T12:29:27;5.00;;;4.55;;
17175;SDS011;8703;48.996;9.594;2022-07-22T12:31:56;7.00;;;4.50;;
17175;SDS011;8703;48.996;9.594;2022-07-22T12:34:35;6.53;;;5.10;;
17175;SDS011;8703;48.996;9.594;2022-07-22T12:37:14;5.18;;;4.78;;
17175;SDS011;8703;48.996;9.594;2022-07-22T12:39:52;4.90;;;4.03;;
17175;SDS011;8703;48.996;9.594;2022-07-22T12:42:22;4.63;;;4.22;;
17175;SDS011;8703;48.996;9.594;2022-07-22T12:44:50;4.90;;;4.40;;
17175;SDS011;8703;48.996;9.594;2022-07-22T12:50:23;4.70;;;4.13;;
17175;SDS011;8703;48.996;9.594;2022-07-22T12:52:53;4.72;;;3.92;;
17175;SDS011;8703;48.996;9.594;2022-07-22T12:55:21;5.13;;;4.55;;
17175;SDS011;8703;48.996;9.594;2022-07-22T12:57:50;4.75;;;4.22;;
17175;SDS011;8703;48.996;9.594;2022-07-22T13:00:18;3.85;;;3.55;;
17175;SDS011;8703;48.996;9.594;2022-07-22T13:02:46;4.30;;;4.00;;
17175;SDS011;8703;48.996;9.594;2022-07-22T13:05:14;4.90;;;4.40;;
17175;SDS011;8703;48.996;9.594;2022-07-22T13:07:42;4.28;;;3.92;;
17175;SDS011;8703;48.996;9.594;2022-07-22T13:10:10;4.68;;;4.25;;
17175;SDS011;8703;48.996;9.594;2022-07-22T13:12:38;4.78;;;4.15;;
17175;SDS011;8703;48.996;9.594;2022-07-22T13:15:07;4.60;;;4.20;;
17175;SDS011;8703;48.996;9.594;2022-07-22T13:17:36;5.22;;;4.45;;
17175;SDS011;8703;48.996;9.594;2022-07-22T13:20:04;6.28;;;4.03;;
17175;SDS011;8703;48.996;9.594;2022-07-22T13:22:32;5.05;;;4.22;;
17175;SDS011;8703;48.996;9.594;2022-07-22T13:25:00;4.32;;;3.97;;
17175;SDS011;8703;48.996;9.594;2022-07-22T13:27:27;4.97;;;4.47;;
17175;SDS011;8703;48.996;9.594;2022-07-22T13:29:54;6.05;;;4.30;;
17175;SDS011;8703;48.996;9.594;2022-07-22T13:32:23;4.40;;;4.00;;
17175;SDS011;8703;48.996;9.594;2022-07-22T13:34:50;4.50;;;4.10;;
17175;SDS011;8703;48.996;9.594;2022-07-22T13:37:19;5.18;;;4.60;;
17175;SDS011;8703;48.996;9.594;2022-07-22T13:39:47;4.32;;;4.03;;
17175;SDS011;8703;48.996;9.594;2022-07-22T13:42:14;4.82;;;4.28;;
17175;SDS011;8703;48.996;9.594;2022-07-22T13:44:43;4.10;;;3.80;;
17175;SDS011;8703;48.996;9.594;2022-07-22T13:47:10;4.70;;;4.30;;
17175;SDS011;8703;48.996;9.594;2022-07-22T13:49:39;4.30;;;3.90;;
17175;SDS011;8703;48.996;9.594;2022-07-22T13:52:07;4.38;;;3.95;;
17175;SDS011;8703;48.996;9.594;2022-07-22T13:54:35;4.45;;;3.78;;
17175;SDS011;8703;48.996;9.594;2022-07-22T13:57:02;4.30;;;3.90;;
17175;SDS011;8703;48.996;9.594;2022-07-22T13:59:30;4.75;;;4.35;;
17175;SDS011;8703;48.996;9.594;2022-07-22T14:01:58;4.10;;;3.70;;
17175;SDS011;8703;48.996;9.594;2022-07-22T14:04:26;4.80;;;4.25;;
17175;SDS011;8703;48.996;9.594;2022-07-22T14:06:55;4.25;;;3.95;;
17175;SDS011;8703;48.996;9.594;2022-07-22T14:09:22;4.82;;;4.43;;
17175;SDS011;8703;48.996;9.594;2022-07-22T14:11:49;4.72;;;3.83;;
17175;SDS011;8703;48.996;9.594;2022-07-22T14:14:17;5.65;;;4.25;;
17175;SDS011;8703;48.996;9.594;2022-07-22T14:16:44;4.63;;;4.10;;
17175;SDS011;8703;48.996;9.594;2022-07-22T14:19:13;4.13;;;3.72;;
17175;SDS011;8703;48.996;9.594;2022-07-22T14:21:42;4.82;;;4.35;;
17175;SDS011;8703;48.996;9.594;2022-07-22T14:24:12;4.82;;;3.90;;
17175;SDS011;8703;48.996;9.594;2022-07-22T14:26:39;4.70;;;4.20;;
17175;SDS011;8703;48.996;9.594;2022-07-22T14:29:07;4.55;;;4.10;;
17175;SDS011;8703;48.996;9.594;2022-07-22T14:31:35;4.78;;;4.28;;
17175;SDS011;8703;48.996;9.594;2022-07-22T14:34:02;5.25;;;3.92;;
17175;SDS011;8703;48.996;9.594;2022-07-22T14:36:30;4.32;;;3.92;;
17175;SDS011;8703;48.996;9.594;2022-07-22T14:38:57;4.47;;;4.07;;
17175;SDS011;8703;48.996;9.594;2022-07-22T14:41:26;4.00;;;3.70;;
17175;SDS011;8703;48.996;9.594;2022-07-22T14:43:53;4.13;;;3.83;;
17175;SDS011;8703;48.996;9.594;2022-07-22T14:46:20;4.15;;;3.83;;
17175;SDS011;8703;48.996;9.594;2022-07-22T14:48:48;4.43;;;3.90;;
17175;SDS011;8703;48.996;9.594;2022-07-22T14:51:17;4.88;;;3.83;;
17175;SDS011;8703;48.996;9.594;2022-07-22T14:53:45;4.53;;;3.92;;
17175;SDS011;8703;48.996;9.594;2022-07-22T14:56:13;4.13;;;3.80;;
17175;SDS011;8703;48.996;9.594;2022-07-22T14:58:41;4.03;;;3.65;;
17175;SDS011;8703;48.996;9.594;2022-07-22T15:01:09;3.95;;;3.60;;
17175;SDS011;8703;48.996;9.594;2022-07-22T15:03:37;4.57;;;4.10;;
17175;SDS011;8703;48.996;9.594;2022-07-22T15:06:04;4.20;;;3.80;;
17175;SDS011;8703;48.996;9.594;2022-07-22T15:08:32;4.25;;;3.85;;
17175;SDS011;8703;48.996;9.594;2022-07-22T15:10:59;4.68;;;4.00;;
17175;SDS011;8703;48.996;9.594;2022-07-22T15:13:26;4.65;;;4.25;;